createdAt,value
2023-08-17T00:02:58.763Z,100560.09
2023-08-17T00:06:01.711Z,100558.75
2023-08-17T00:09:05.278Z,100556.75
2023-08-17T00:12:08.293Z,100565.00
2023-08-17T00:15:11.294Z,100564.88
2023-08-17T00:18:14.233Z,100573.25
2023-08-17T00:21:17.636Z,100559.44
2023-08-17T00:24:20.388Z,100558.75
2023-08-17T00:27:23.317Z,100553.28
2023-08-17T00:30:29.399Z,100551.03
2023-08-17T00:33:32.093Z,100545.91
2023-08-17T00:36:35.877Z,100544.69
2023-08-17T00:39:38.539Z,100551.91
2023-08-17T00:42:41.276Z,100559.78
2023-08-17T00:45:46.305Z,100557.41
2023-08-17T00:48:49.429Z,100555.09
2023-08-17T00:51:52.797Z,100558.69
2023-08-17T00:54:56.836Z,100555.44
2023-08-17T00:58:02.675Z,100548.31
2023-08-17T01:01:05.543Z,100523.78
2023-08-17T01:04:09.533Z,100546.13
2023-08-17T01:07:15.266Z,100548.44
2023-08-17T01:10:18.354Z,100522.91
2023-08-17T01:13:27.392Z,100549.97
2023-08-17T01:16:40.194Z,100540.16
2023-08-17T01:19:44.430Z,100544.28
2023-08-17T01:22:49.995Z,100544.12
2023-08-17T01:25:53.084Z,100551.75
2023-08-17T01:28:55.944Z,100538.69
2023-08-17T01:32:06.032Z,100518.44
2023-08-17T01:35:31.859Z,100535.03
2023-08-17T01:38:35.000Z,100536.06
2023-08-17T01:41:38.672Z,100538.75
2023-08-17T01:44:41.480Z,100531.84
2023-08-17T01:47:45.715Z,100538.84
2023-08-17T01:50:51.438Z,100533.91
2023-08-17T01:53:57.092Z,100540.72
2023-08-17T01:56:59.849Z,100528.84
2023-08-17T02:00:06.624Z,100544.00
2023-08-17T02:03:09.439Z,100533.97
2023-08-17T02:06:12.171Z,100541.38
2023-08-17T02:09:14.885Z,100537.88
2023-08-17T02:12:17.573Z,100532.81
2023-08-17T02:15:20.313Z,100534.91
2023-08-17T02:18:23.018Z,100536.97
2023-08-17T02:21:25.819Z,100544.16
2023-08-17T02:24:28.703Z,100538.44
2023-08-17T02:27:32.854Z,100535.78
2023-08-17T02:30:35.650Z,100542.16
2023-08-17T02:33:38.529Z,100541.59
2023-08-17T02:36:41.339Z,100538.31
2023-08-17T02:39:44.065Z,100535.03
2023-08-17T02:42:46.763Z,100532.75
2023-08-17T02:45:49.493Z,100538.69
2023-08-17T02:48:52.372Z,100534.22
2023-08-17T02:51:55.087Z,100538.53
2023-08-17T02:54:57.757Z,100531.97
2023-08-17T02:58:04.243Z,100524.38
2023-08-17T03:01:06.995Z,100527.69
2023-08-17T03:04:09.730Z,100525.44
2023-08-17T03:07:13.633Z,100525.03
2023-08-17T03:10:19.794Z,100525.69
2023-08-17T03:13:29.667Z,100494.34
2023-08-17T03:16:32.457Z,100524.22
2023-08-17T03:19:35.388Z,100523.62
2023-08-17T03:22:38.120Z,100529.75
2023-08-17T03:25:40.859Z,100528.87
2023-08-17T03:28:43.614Z,100536.91
2023-08-17T03:31:51.008Z,100535.06
2023-08-17T03:34:53.722Z,100542.41
2023-08-17T03:37:57.660Z,100546.72
2023-08-17T03:41:05.438Z,100546.09
2023-08-17T03:44:08.384Z,100537.06
2023-08-17T03:47:14.189Z,100552.66
2023-08-17T03:50:17.052Z,100555.09
2023-08-17T03:53:19.897Z,100549.75
2023-08-17T03:56:22.657Z,100548.94
2023-08-17T03:59:26.293Z,100547.47
2023-08-17T04:02:29.189Z,100548.09
2023-08-17T04:05:31.964Z,100547.62
2023-08-17T04:08:34.844Z,100550.25
2023-08-17T04:11:40.849Z,100557.44
2023-08-17T04:14:43.602Z,100552.47
2023-08-17T04:17:46.441Z,100557.56
2023-08-17T04:20:49.241Z,100554.69
2023-08-17T04:23:55.501Z,100555.69
2023-08-17T04:27:01.380Z,100545.84
2023-08-17T04:30:04.448Z,100534.34
2023-08-17T04:33:08.993Z,100544.50
2023-08-17T04:36:11.758Z,100558.41
2023-08-17T04:39:14.447Z,100563.75
2023-08-17T04:42:17.213Z,100567.47
2023-08-17T04:45:19.999Z,100567.25
2023-08-17T04:48:22.756Z,100567.25
2023-08-17T04:51:25.485Z,100568.22
2023-08-17T04:54:28.319Z,100552.78
2023-08-17T04:57:31.025Z,100558.13
2023-08-17T05:00:34.882Z,100562.81
2023-08-17T05:03:37.810Z,100562.78
2023-08-17T05:06:41.810Z,100556.13
2023-08-17T05:09:44.633Z,100563.88
2023-08-17T05:12:48.166Z,100556.31
2023-08-17T05:15:50.967Z,100557.22
2023-08-17T05:18:53.873Z,100564.09
2023-08-17T05:21:56.638Z,100557.22
2023-08-17T05:24:59.412Z,100552.97
2023-08-17T05:28:02.363Z,100556.97
2023-08-17T05:31:08.653Z,100561.44
2023-08-17T05:34:17.438Z,100553.91
2023-08-17T05:37:20.147Z,100561.53
2023-08-17T05:40:22.909Z,100555.41
2023-08-17T05:43:26.086Z,100550.66
2023-08-17T05:46:31.667Z,100553.00
2023-08-17T05:49:34.404Z,100547.41
2023-08-17T05:52:37.295Z,100559.00
2023-08-17T05:55:40.143Z,100568.03
2023-08-17T05:58:43.516Z,100574.09
2023-08-17T06:01:47.953Z,100576.44
2023-08-17T06:04:50.861Z,100571.78
2023-08-17T06:07:53.834Z,100580.69
2023-08-17T06:10:56.939Z,100585.00
2023-08-17T06:13:59.674Z,100590.97
2023-08-17T06:17:03.719Z,100592.25
2023-08-17T06:20:08.539Z,100594.00
2023-08-17T06:23:11.337Z,100597.03
2023-08-17T06:26:14.374Z,100598.59
2023-08-17T06:29:17.124Z,100590.78
2023-08-17T06:32:19.824Z,100587.75
2023-08-17T06:35:23.678Z,100587.25
2023-08-17T06:38:26.437Z,100588.66
2023-08-17T06:41:29.103Z,100587.59
2023-08-17T06:44:32.391Z,100587.75
2023-08-17T06:47:35.180Z,100591.00
2023-08-17T06:50:37.973Z,100583.63
2023-08-17T06:53:42.852Z,100581.75
2023-08-17T06:56:45.631Z,100583.09
2023-08-17T06:59:48.641Z,100585.06
2023-08-17T07:02:54.566Z,100582.34
2023-08-17T07:05:59.978Z,100586.19
2023-08-17T07:09:06.441Z,100587.94
2023-08-17T07:12:09.450Z,100588.22
2023-08-17T07:15:12.490Z,100583.13
2023-08-17T07:18:15.327Z,100587.78
2023-08-17T07:21:18.138Z,100588.19
2023-08-17T07:24:20.880Z,100585.22
2023-08-17T07:27:23.685Z,100596.19
2023-08-17T07:30:26.485Z,100597.72
2023-08-17T07:33:29.324Z,100601.31
2023-08-17T07:36:32.792Z,100594.53
2023-08-17T07:39:35.629Z,100590.41
2023-08-17T07:42:38.970Z,100589.34
2023-08-17T07:45:41.946Z,100594.13
2023-08-17T07:48:44.741Z,100591.28
2023-08-17T07:51:47.482Z,100590.88
2023-08-17T07:57:55.679Z,100590.78
2023-08-17T08:01:02.906Z,100590.94
2023-08-17T08:04:09.606Z,100593.78
2023-08-17T08:07:12.343Z,100581.75
2023-08-17T08:10:18.233Z,100589.97
2023-08-17T08:13:21.791Z,100586.00
2023-08-17T08:16:24.677Z,100582.56
2023-08-17T08:19:27.652Z,100579.09
2023-08-17T08:22:30.464Z,100588.56
2023-08-17T08:25:33.281Z,100594.72
2023-08-17T08:28:36.535Z,100590.34
2023-08-17T08:31:39.403Z,100575.25
2023-08-17T08:34:42.179Z,100586.31
2023-08-17T08:37:44.964Z,100582.19
2023-08-17T08:40:49.060Z,100581.94
2023-08-17T08:43:51.972Z,100582.66
2023-08-17T08:46:56.457Z,100579.72
2023-08-17T08:50:04.217Z,100578.19
2023-08-17T08:53:12.780Z,100587.59
2023-08-17T08:56:20.820Z,100574.50
2023-08-17T08:59:25.143Z,100570.25
2023-08-17T09:02:27.956Z,100570.03
2023-08-17T09:05:32.827Z,100567.62
2023-08-17T09:08:35.924Z,100559.84
2023-08-17T09:11:44.614Z,100561.09
2023-08-17T09:14:47.843Z,100555.72
2023-08-17T09:17:50.927Z,100554.44
2023-08-17T09:20:53.945Z,100554.47
2023-08-17T09:24:00.506Z,100550.72
2023-08-17T09:27:03.917Z,100546.66
2023-08-17T09:30:08.459Z,100544.44
2023-08-17T09:33:11.243Z,100545.44
2023-08-17T09:36:14.401Z,100541.87
2023-08-17T09:39:19.270Z,100541.59
2023-08-17T09:42:24.050Z,100539.66
2023-08-17T09:45:28.877Z,100544.63
2023-08-17T09:48:33.726Z,100536.84
2023-08-17T09:51:42.957Z,100538.06
2023-08-17T09:54:47.845Z,100541.91
2023-08-17T09:57:51.979Z,100543.50
2023-08-17T10:00:55.364Z,100537.22
2023-08-17T10:03:59.620Z,100541.03
2023-08-17T10:07:04.864Z,100535.81
2023-08-17T10:10:08.397Z,100533.69
2023-08-17T10:13:30.075Z,100540.75
2023-08-17T10:16:51.788Z,100531.81
2023-08-17T10:19:56.533Z,100528.66
2023-08-17T10:23:16.274Z,100530.78
2023-08-17T10:26:19.221Z,100526.66
2023-08-17T10:29:24.745Z,100518.91
2023-08-17T10:32:28.951Z,100515.41
2023-08-17T10:35:32.900Z,100506.66
2023-08-17T10:38:35.670Z,100505.81
2023-08-17T10:41:50.837Z,100499.69
2023-08-17T10:44:53.608Z,100502.19
2023-08-17T10:48:29.264Z,100497.63
2023-08-17T10:51:32.053Z,100491.78
2023-08-17T10:54:41.784Z,100489.34
2023-08-17T10:57:45.623Z,100484.97
2023-08-17T11:00:48.431Z,100499.03
2023-08-17T11:04:10.642Z,100493.47
2023-08-17T11:07:17.433Z,100490.50
2023-08-17T11:10:20.234Z,100491.37
2023-08-17T11:13:29.512Z,100490.06
2023-08-17T11:16:32.407Z,100486.72
2023-08-17T11:19:35.198Z,100485.16
2023-08-17T11:22:38.039Z,100485.34
2023-08-17T11:25:40.954Z,100480.78
2023-08-17T11:28:46.266Z,100483.38
2023-08-17T11:31:51.918Z,100477.91
2023-08-17T11:34:59.375Z,100474.63
2023-08-17T11:38:08.214Z,100479.56
2023-08-17T11:41:19.333Z,100487.44
2023-08-17T11:44:24.337Z,100484.97
2023-08-17T11:47:32.561Z,100503.91
2023-08-17T11:50:39.908Z,100498.75
2023-08-17T11:53:49.508Z,100508.59
2023-08-17T11:56:55.889Z,100512.34
2023-08-17T11:59:59.908Z,100517.72
2023-08-17T12:03:05.538Z,100518.22
2023-08-17T12:06:09.082Z,100511.66
2023-08-17T12:09:14.122Z,100514.94
2023-08-17T12:12:22.783Z,100513.12
2023-08-17T12:15:26.169Z,100504.16
2023-08-17T12:18:29.084Z,100495.97
2023-08-17T12:21:32.188Z,100500.34
2023-08-17T12:24:36.654Z,100494.72
2023-08-17T12:27:39.500Z,100497.38
2023-08-17T12:30:42.278Z,100485.69
2023-08-17T12:33:46.043Z,100490.06
2023-08-17T12:36:50.610Z,100493.97
2023-08-17T12:39:53.510Z,100474.69
2023-08-17T12:42:57.875Z,100476.03
2023-08-17T12:46:00.647Z,100462.38
2023-08-17T12:49:04.226Z,100466.03
2023-08-17T12:52:10.315Z,100463.34
2023-08-17T12:55:13.116Z,100474.47
2023-08-17T12:58:15.856Z,100454.91
2023-08-17T13:01:20.268Z,100451.72
2023-08-17T13:04:23.213Z,100461.38
2023-08-17T13:07:26.035Z,100461.63
2023-08-17T13:10:29.324Z,100458.09
2023-08-17T13:13:32.352Z,100458.25
2023-08-17T13:16:35.101Z,100456.41
2023-08-17T13:19:38.008Z,100450.75
2023-08-17T13:22:40.874Z,100446.34
2023-08-17T13:25:44.034Z,100444.25
2023-08-17T13:28:50.715Z,100444.41
2023-08-17T13:31:53.504Z,100429.41
2023-08-17T13:34:56.262Z,100434.03
2023-08-17T13:37:59.025Z,100438.25
2023-08-17T13:41:01.722Z,100438.72
2023-08-17T13:44:04.792Z,100441.56
2023-08-17T13:47:10.475Z,100444.06
2023-08-17T13:50:13.337Z,100437.66
2023-08-17T13:53:18.968Z,100446.56
2023-08-17T13:56:21.804Z,100419.47
2023-08-17T13:59:24.552Z,100429.63
2023-08-17T14:02:29.118Z,100431.69
2023-08-17T14:05:36.832Z,100424.56
2023-08-17T14:08:39.895Z,100431.69
2023-08-17T14:11:45.768Z,100428.34
2023-08-17T14:14:48.554Z,100427.19
2023-08-17T14:17:51.225Z,100422.34
2023-08-17T14:20:54.010Z,100418.25
2023-08-17T14:23:56.716Z,100415.72
2023-08-17T14:26:59.651Z,100423.91
2023-08-17T14:30:03.591Z,100420.00
2023-08-17T14:33:06.382Z,100421.25
2023-08-17T14:36:09.060Z,100413.53
2023-08-17T14:39:11.818Z,100407.63
2023-08-17T14:42:14.465Z,100406.34
2023-08-17T14:45:18.019Z,100407.59
2023-08-17T14:48:22.443Z,100407.78
2023-08-17T14:51:30.909Z,100401.06
2023-08-17T14:54:34.295Z,100409.97
2023-08-17T14:57:37.128Z,100408.84
2023-08-17T15:00:39.809Z,100407.94
2023-08-17T15:03:42.604Z,100393.81
2023-08-17T15:06:45.404Z,100398.59
2023-08-17T15:09:49.822Z,100395.00
2023-08-17T15:12:52.556Z,100400.22
2023-08-17T15:15:57.328Z,100392.34
2023-08-17T15:19:00.076Z,100389.22
2023-08-17T15:22:03.932Z,100386.75
2023-08-17T15:25:09.778Z,100385.66
2023-08-17T15:28:12.562Z,100380.25
2023-08-17T15:31:17.703Z,100380.88
2023-08-17T15:34:20.700Z,100383.31
2023-08-17T15:37:23.440Z,100379.53
2023-08-17T15:40:26.218Z,100374.94
2023-08-17T15:43:28.960Z,100369.63
2023-08-17T15:46:33.109Z,100375.03
2023-08-17T15:49:35.879Z,100362.06
2023-08-17T15:52:38.605Z,100368.06
2023-08-17T15:55:44.354Z,100362.66
2023-08-17T15:58:47.120Z,100364.56
2023-08-17T16:01:50.078Z,100353.50
2023-08-17T16:04:52.899Z,100354.63
2023-08-17T16:07:55.644Z,100352.22
2023-08-17T16:10:58.371Z,100354.09
2023-08-17T16:14:01.025Z,100348.16
2023-08-17T16:17:05.062Z,100343.88
2023-08-17T16:20:09.003Z,100344.12
2023-08-17T16:23:11.818Z,100347.66
2023-08-17T16:26:14.553Z,100354.69
2023-08-17T16:29:17.292Z,100352.50
2023-08-17T16:32:19.972Z,100345.50
2023-08-17T16:35:23.327Z,100341.44
2023-08-17T16:38:26.050Z,100359.53
2023-08-17T16:41:28.834Z,100344.38
2023-08-17T16:44:31.716Z,100347.09
2023-08-17T16:47:34.704Z,100356.28
2023-08-17T16:50:37.394Z,100352.50
2023-08-17T16:53:44.015Z,100353.88
2023-08-17T16:56:46.974Z,100351.97
2023-08-17T16:59:49.734Z,100359.78
2023-08-17T17:02:52.689Z,100355.72
2023-08-17T17:05:55.742Z,100361.12
2023-08-17T17:08:58.688Z,100358.69
2023-08-17T17:12:01.575Z,100365.69
2023-08-17T17:15:04.942Z,100356.22
2023-08-17T17:18:08.034Z,100360.00
2023-08-17T17:21:12.837Z,100360.53
2023-08-17T17:24:15.714Z,100362.37
2023-08-17T17:27:18.766Z,100368.81
2023-08-17T17:30:27.765Z,100364.66
2023-08-17T17:33:30.460Z,100373.50
2023-08-17T17:36:34.116Z,100376.69
2023-08-17T17:39:36.807Z,100377.91
2023-08-17T17:42:42.777Z,100372.72
2023-08-17T17:45:49.893Z,100369.47
2023-08-17T17:48:54.185Z,100372.94
2023-08-17T17:51:56.895Z,100368.59
2023-08-17T17:54:59.715Z,100374.50
2023-08-17T17:58:02.681Z,100378.22
2023-08-17T18:01:05.817Z,100378.09
2023-08-17T18:04:08.812Z,100375.31
2023-08-17T18:07:12.583Z,100379.25
2023-08-17T18:10:15.352Z,100376.69
2023-08-17T18:13:18.140Z,100378.47
2023-08-17T18:16:21.768Z,100380.00
2023-08-17T18:19:24.742Z,100377.50
2023-08-17T18:22:27.766Z,100377.66
2023-08-17T18:25:33.363Z,100387.03
2023-08-17T18:28:36.082Z,100392.56
2023-08-17T18:31:41.874Z,100391.91
2023-08-17T18:34:44.917Z,100399.09
2023-08-17T18:37:47.651Z,100393.75
2023-08-17T18:40:53.040Z,100396.63
2023-08-17T18:43:56.785Z,100402.50
2023-08-17T18:46:59.535Z,100409.44
2023-08-17T18:50:02.549Z,100408.78
2023-08-17T18:53:05.359Z,100411.66
2023-08-17T18:56:08.060Z,100414.75
2023-08-17T18:59:10.971Z,100417.94
2023-08-17T19:02:13.867Z,100427.63
2023-08-17T19:05:18.317Z,100430.00
2023-08-17T19:08:21.645Z,100432.09
2023-08-17T19:11:25.000Z,100432.09
2023-08-17T19:14:27.752Z,100432.59
2023-08-17T19:17:32.906Z,100416.91
2023-08-17T19:20:36.179Z,100418.53
2023-08-17T19:23:39.132Z,100421.62
2023-08-17T19:26:41.937Z,100428.88
2023-08-17T19:29:44.648Z,100424.31
2023-08-17T19:32:47.647Z,100431.56
2023-08-17T19:35:50.769Z,100430.63
2023-08-17T19:38:53.512Z,100432.16
2023-08-17T19:41:56.478Z,100428.88
2023-08-17T19:44:59.267Z,100426.94
2023-08-17T19:48:01.993Z,100433.03
2023-08-17T19:51:05.189Z,100424.31
2023-08-17T19:54:08.015Z,100427.50
2023-08-17T19:57:10.827Z,100436.59
2023-08-17T20:00:14.351Z,100438.38
2023-08-17T20:03:17.603Z,100442.84
2023-08-17T20:06:20.825Z,100430.41
2023-08-17T20:09:23.666Z,100429.81
2023-08-17T20:12:27.421Z,100427.00
2023-08-17T20:15:30.492Z,100435.78
2023-08-17T20:18:34.311Z,100431.28
2023-08-17T20:21:37.381Z,100436.31
2023-08-17T20:24:40.957Z,100428.19
2023-08-17T20:27:44.477Z,100433.22
2023-08-17T20:30:47.840Z,100433.44
2023-08-17T20:33:50.675Z,100427.63
2023-08-17T20:36:53.370Z,100426.66
2023-08-17T20:39:56.122Z,100438.25
2023-08-17T20:42:58.966Z,100435.91
2023-08-17T20:46:01.915Z,100441.97
2023-08-17T20:49:05.780Z,100448.16
2023-08-17T20:52:09.169Z,100443.50
2023-08-17T20:55:12.214Z,100445.03
2023-08-17T20:58:15.116Z,100444.69
2023-08-17T21:01:19.870Z,100445.84
2023-08-17T21:04:22.837Z,100451.94
2023-08-17T21:07:28.253Z,100465.56
2023-08-17T21:10:32.971Z,100459.38
2023-08-17T21:13:37.175Z,100467.91
2023-08-17T21:16:40.406Z,100457.19
2023-08-17T21:19:44.779Z,100455.19
2023-08-17T21:22:52.134Z,100466.59
2023-08-17T21:25:55.311Z,100467.63
2023-08-17T21:28:58.238Z,100461.94
2023-08-17T21:32:00.959Z,100464.72
2023-08-17T21:35:07.389Z,100458.56
2023-08-17T21:38:10.054Z,100465.91
2023-08-17T21:41:12.783Z,100459.50
2023-08-17T21:44:18.608Z,100462.62
2023-08-17T21:47:25.426Z,100463.09
2023-08-17T21:50:28.079Z,100460.19
2023-08-17T21:53:30.927Z,100452.03
2023-08-17T21:56:33.599Z,100455.06
2023-08-17T21:59:36.478Z,100452.72
2023-08-17T22:02:39.305Z,100452.25
2023-08-17T22:05:45.367Z,100453.53
2023-08-17T22:08:48.050Z,100455.28
2023-08-17T22:11:50.751Z,100448.78
2023-08-17T22:14:53.455Z,100453.31
2023-08-17T22:17:56.445Z,100454.72
2023-08-17T22:20:59.115Z,100449.25
2023-08-17T22:24:01.869Z,100450.28
2023-08-17T22:27:04.857Z,100442.94
2023-08-17T22:30:08.123Z,100451.34
2023-08-17T22:33:10.777Z,100451.34
2023-08-17T22:36:13.501Z,100447.37
2023-08-17T22:39:16.202Z,100448.31
2023-08-17T22:42:21.970Z,100446.09
2023-08-17T22:45:24.730Z,100444.22
2023-08-17T22:48:30.787Z,100441.44
2023-08-17T22:51:33.443Z,100439.00
2023-08-17T22:54:36.190Z,100433.28
2023-08-17T22:57:38.946Z,100430.37
2023-08-17T23:00:44.820Z,100435.50
2023-08-17T23:03:47.495Z,100433.41
2023-08-17T23:06:50.220Z,100437.59
2023-08-17T23:09:52.863Z,100443.19
2023-08-17T23:12:56.835Z,100439.69
2023-08-17T23:16:02.475Z,100444.47
2023-08-17T23:19:05.657Z,100425.69
2023-08-17T23:22:08.282Z,100431.38
2023-08-17T23:25:12.172Z,100431.62
2023-08-17T23:28:14.904Z,100432.91
2023-08-17T23:31:17.901Z,100430.66
2023-08-17T23:34:20.681Z,100438.31
2023-08-17T23:37:24.283Z,100436.94
2023-08-17T23:40:30.313Z,100439.25
2023-08-17T23:43:34.249Z,100444.47
2023-08-17T23:46:37.011Z,100439.59
2023-08-17T23:49:41.434Z,100439.00
2023-08-17T23:52:44.533Z,100440.50
2023-08-17T23:55:47.634Z,100430.50
2023-08-17T23:58:50.934Z,100435.62
